Time;durP1;ratioP1;P1;durP2;ratioP2;P2;SDS_P1;SDS_P2;PMS_P1;PMS_P2;Temp;Humidity;BMP_temperature;BMP_pressure;BME280_temperature;BME280_humidity;BME280_pressure;Samples;Min_cycle;Max_cycle;Signal;HPM_P1;HPM_P2
2022/08/03 00:00:17;;;;;;;4.53;4.10;;;;;;;22.67;62.24;101421.56;6003421;29;20239;-70
2022/08/03 00:03:39;;;;;;;5.57;3.67;;;;;;;22.56;62.64;101424.84;6004091;29;20250;-71
2022/08/03 00:07:00;;;;;;;5.82;4.20;;;;;;;22.60;63.03;101424.28;6004747;29;20234;-71
2022/08/03 00:10:21;;;;;;;4.47;4.07;;;;;;;22.56;62.92;101430.34;6003137;29;20901;-70
2022/08/03 00:13:42;;;;;;;4.38;3.97;;;;;;;22.43;63.37;101420.09;6003982;29;20238;-71
2022/08/03 00:17:04;;;;;;;4.43;4.07;;;;;;;22.40;63.79;101422.41;6005494;29;20641;-71
2022/08/03 00:20:26;;;;;;;6.63;4.50;;;;;;;22.42;63.97;101418.41;6004991;29;20643;-72
2022/08/03 00:23:47;;;;;;;5.40;4.82;;;;;;;22.50;64.14;101420.16;6004830;29;20558;-70
2022/08/03 00:27:07;;;;;;;4.68;4.28;;;;;;;22.48;64.01;101425.00;6004783;29;20238;-71
2022/08/03 00:30:29;;;;;;;4.90;3.90;;;;;;;22.43;64.14;101413.75;6001664;29;20262;-71
2022/08/03 00:33:51;;;;;;;3.97;3.72;;;;;;;22.32;64.69;101406.06;6006001;29;20226;-71
2022/08/03 00:37:12;;;;;;;3.95;3.65;;;;;;;22.21;64.92;101415.72;6006637;29;20330;-71
2022/08/03 00:40:33;;;;;;;4.03;3.60;;;;;;;22.14;64.77;101412.91;6004978;29;20243;-71
2022/08/03 00:43:54;;;;;;;4.28;3.88;;;;;;;22.10;64.96;101414.34;6006107;29;20226;-71
2022/08/03 00:47:15;;;;;;;4.70;4.30;;;;;;;22.08;65.41;101407.34;6005747;29;20230;-69
2022/08/03 00:50:41;;;;;;;5.18;4.80;;;;;;;21.98;65.43;101407.69;6005956;29;20242;-71
2022/08/03 00:54:02;;;;;;;4.60;4.20;;;;;;;21.96;65.90;101407.03;6007360;29;20270;-71
2022/08/03 00:57:24;;;;;;;4.50;4.10;;;;;;;21.94;65.78;101405.53;6004839;29;20242;-72
2022/08/03 01:00:45;;;;;;;5.25;4.63;;;;;;;22.05;66.21;101411.31;6004460;29;20238;-71
2022/08/03 01:04:06;;;;;;;4.60;4.25;;;;;;;22.12;65.79;101414.13;6000459;29;20238;-71
2022/08/03 01:07:46;;;;;;;5.53;5.00;;;;;;;22.10;65.96;101408.00;6004885;29;20238;-72
2022/08/03 01:11:15;;;;;;;4.68;4.22;;;;;;;21.96;65.56;101409.78;6005709;29;20706;-71
2022/08/03 01:14:43;;;;;;;4.80;4.40;;;;;;;21.80;65.82;101411.91;6005752;29;20660;-72
2022/08/03 01:18:11;;;;;;;5.22;4.82;;;;;;;21.79;66.36;101412.94;6008981;29;20233;-70
2022/08/03 01:21:40;;;;;;;5.53;4.53;;;;;;;21.72;66.44;101410.13;5995070;29;20323;-72
2022/08/03 01:25:09;;;;;;;4.85;4.45;;;;;;;21.73;66.27;101400.00;5998339;29;20703;-71
2022/08/03 01:28:48;;;;;;;6.13;4.90;;;;;;;21.66;65.93;101408.16;6008437;29;20325;-71
2022/08/03 01:32:13;;;;;;;5.72;5.13;;;;;;;21.70;66.00;101397.63;5993298;29;20597;-72
2022/08/03 01:35:41;;;;;;;4.80;4.50;;;;;;;21.54;66.22;101397.91;6007334;29;20247;-71
2022/08/03 01:39:08;;;;;;;4.53;4.22;;;;;;;21.53;66.15;101404.44;6004604;29;20246;-72
2022/08/03 01:42:30;;;;;;;5.25;4.82;;;;;;;21.42;66.67;101389.34;6006358;29;20266;-71
2022/08/03 01:45:54;;;;;;;5.85;4.90;;;;;;;21.33;66.71;101393.25;6001677;29;20361;-72
2022/08/03 01:49:17;;;;;;;4.75;4.25;;;;;;;21.32;66.94;101394.28;6005399;29;20227;-71
2022/08/03 01:52:42;;;;;;;4.50;4.20;;;;;;;21.30;67.19;101396.34;6006462;29;20234;-70
2022/08/03 01:56:06;;;;;;;5.13;4.60;;;;;;;21.32;66.99;101395.13;6004862;29;20274;-71
2022/08/03 01:59:29;;;;;;;7.28;5.07;;;;;;;21.33;66.86;101398.72;6007194;29;20238;-71
2022/08/03 02:02:51;;;;;;;7.53;5.80;;;;;;;21.27;67.02;101394.00;6002737;29;20249;-70
2022/08/03 02:06:15;;;;;;;6.07;5.57;;;;;;;21.23;67.31;101389.97;6005348;29;20528;-72
2022/08/03 02:09:39;;;;;;;5.55;5.00;;;;;;;21.13;67.29;101389.41;6006648;29;20262;-71
2022/08/03 02:13:02;;;;;;;5.65;4.68;;;;;;;21.06;68.06;101385.72;6004277;29;20243;-71
2022/08/03 02:16:26;;;;;;;6.25;4.95;;;;;;;21.05;67.94;101384.06;6002256;29;20235;-70
2022/08/03 02:19:49;;;;;;;5.78;5.20;;;;;;;21.07;68.11;101391.03;6003784;29;20238;-72
2022/08/03 02:23:12;;;;;;;7.43;5.85;;;;;;;21.03;68.18;101386.97;6003330;29;20301;-71
2022/08/03 02:26:36;;;;;;;6.07;5.57;;;;;;;20.95;68.39;101380.69;6003427;29;20737;-70
2022/08/03 02:30:04;;;;;;;6.05;5.55;;;;;;;21.00;68.40;101386.47;6004399;29;20234;-71
2022/08/03 02:33:32;;;;;;;7.88;5.35;;;;;;;20.88;68.91;101379.78;6004462;29;20347;-70
2022/08/03 02:36:55;;;;;;;6.03;5.53;;;;;;;20.98;68.83;101378.44;6003676;29;20238;-71
2022/08/03 02:40:20;;;;;;;5.35;4.60;;;;;;;20.88;68.85;101374.31;6004397;29;20317;-71
2022/08/03 02:43:43;;;;;;;4.53;4.13;;;;;;;21.00;68.30;101378.25;6002390;29;20255;-69
2022/08/03 02:47:09;;;;;;;5.85;5.35;;;;;;;20.93;68.48;101371.81;6003698;29;20621;-72
2022/08/03 02:50:32;;;;;;;9.38;5.30;;;;;;;20.76;69.30;101370.34;6004867;29;20394;-72
2022/08/03 02:53:55;;;;;;;6.20;5.63;;;;;;;20.69;69.25;101376.56;6004063;29;20231;-71
2022/08/03 02:57:19;;;;;;;8.18;7.55;;;;;;;20.69;69.13;101370.25;6005085;29;20234;-71
2022/08/03 03:00:43;;;;;;;6.70;6.10;;;;;;;20.76;69.26;101373.91;5995241;29;20263;-72
2022/08/03 03:04:05;;;;;;;7.75;5.50;;;;;;;20.60;69.42;101369.50;6005431;29;20498;-71
2022/08/03 03:07:27;;;;;;;8.63;6.03;;;;;;;20.55;69.40;101371.94;6007801;29;20243;-72
2022/08/03 03:10:48;;;;;;;6.32;5.78;;;;;;;20.54;69.65;101375.72;6002763;29;20238;-71
2022/08/03 03:14:12;;;;;;;6.40;5.80;;;;;;;20.51;69.93;101373.34;6002630;29;20234;-71
2022/08/03 03:17:34;;;;;;;6.50;5.40;;;;;;;20.47;69.84;101371.19;6002621;29;20227;-71
2022/08/03 03:20:57;;;;;;;5.35;4.90;;;;;;;20.47;70.08;101371.19;6006057;29;20304;-71
2022/08/03 03:24:18;;;;;;;5.70;5.20;;;;;;;20.46;70.10;101366.75;6006794;29;20247;-72
2022/08/03 03:27:40;;;;;;;6.00;5.43;;;;;;;20.50;69.92;101363.47;6005648;29;20242;-71
2022/08/03 03:31:04;;;;;;;5.72;5.20;;;;;;;20.38;70.37;101369.59;6003306;29;20586;-71
2022/08/03 03:34:25;;;;;;;5.85;5.45;;;;;;;20.35;70.24;101367.22;6003584;29;20247;-71
2022/08/03 03:37:46;;;;;;;6.18;5.70;;;;;;;20.40;70.16;101373.81;6003701;29;20278;-72
2022/08/03 03:41:07;;;;;;;5.53;5.13;;;;;;;20.47;69.80;101372.03;6003668;29;20238;-72
2022/08/03 03:44:28;;;;;;;7.07;6.20;;;;;;;20.60;69.74;101377.72;6003627;29;20662;-72
2022/08/03 03:47:51;;;;;;;7.43;6.20;;;;;;;20.62;69.54;101372.03;6006032;29;20238;-71
2022/08/03 03:51:13;;;;;;;5.93;5.30;;;;;;;20.66;69.18;101370.63;6005967;29;20230;-70
2022/08/03 03:54:41;;;;;;;6.68;5.95;;;;;;;20.49;69.71;101367.22;6008380;29;20505;-72
2022/08/03 03:58:02;;;;;;;6.93;6.18;;;;;;;20.41;69.79;101380.16;6004421;29;20245;-70
2022/08/03 04:01:24;;;;;;;8.35;6.65;;;;;;;20.14;70.54;101378.00;6006225;29;20243;-72
2022/08/03 04:12:05;;;;;;;8.88;6.05;;;;;;;20.16;70.93;101373.19;6005606;29;20243;-71
2022/08/03 04:15:28;;;;;;;6.95;5.80;;;;;;;20.31;70.43;101374.97;6003002;29;20235;-70
2022/08/03 04:18:53;;;;;;;5.78;5.28;;;;;;;20.46;70.28;101375.78;6007116;29;20234;-72
2022/08/03 04:22:19;;;;;;;6.30;5.18;;;;;;;20.58;69.63;101374.31;6007513;29;20258;-71
2022/08/03 04:25:42;;;;;;;6.13;5.50;;;;;;;20.64;69.44;101373.56;6003996;29;20341;-71
2022/08/03 04:29:05;;;;;;;6.30;5.80;;;;;;;20.56;69.87;101378.28;6005894;29;20230;-72
2022/08/03 04:32:27;;;;;;;7.40;6.70;;;;;;;20.55;69.98;101380.16;6001922;29;20325;-71
2022/08/03 04:35:49;;;;;;;6.22;5.72;;;;;;;20.56;69.77;101381.88;6003233;29;20235;-71
2022/08/03 04:39:16;;;;;;;6.32;5.78;;;;;;;20.63;69.61;101373.75;6006539;29;20234;-72
2022/08/03 04:42:38;;;;;;;6.60;6.00;;;;;;;20.70;69.28;101369.19;6008281;29;20242;-72
2022/08/03 04:46:00;;;;;;;6.38;5.78;;;;;;;20.79;69.00;101370.81;6006388;29;21040;-71
2022/08/03 04:49:22;;;;;;;7.03;6.50;;;;;;;21.01;68.70;101374.44;6004972;29;20254;-72
2022/08/03 04:52:44;;;;;;;8.65;6.85;;;;;;;21.06;68.35;101378.38;6008887;29;20226;-71
2022/08/03 04:56:07;;;;;;;6.55;5.95;;;;;;;21.14;68.15;101382.88;6004586;29;20231;-71
2022/08/03 04:59:28;;;;;;;6.65;6.05;;;;;;;21.07;68.38;101392.94;6004153;29;21001;-71
2022/08/03 05:02:49;;;;;;;6.90;6.32;;;;;;;21.16;68.11;101384.38;6000395;29;20235;-71
2022/08/03 05:06:10;;;;;;;6.75;6.15;;;;;;;21.04;68.42;101391.41;6006206;29;20258;-71
2022/08/03 05:09:31;;;;;;;7.70;6.93;;;;;;;21.17;67.98;101393.47;6008153;29;20266;-72
2022/08/03 05:12:54;;;;;;;6.03;5.47;;;;;;;21.33;67.43;101391.34;6003942;29;20249;-72
2022/08/03 05:16:15;;;;;;;8.25;7.65;;;;;;;21.28;67.31;101395.69;5998636;29;20234;-72
2022/08/03 05:19:36;;;;;;;7.13;6.60;;;;;;;21.36;67.19;101395.59;5999215;29;20243;-72
2022/08/03 05:22:58;;;;;;;9.00;8.10;;;;;;;21.30;66.99;101391.72;6006354;29;20242;-71
2022/08/03 05:26:19;;;;;;;7.65;6.85;;;;;;;21.27;67.59;101392.13;6000928;29;20235;-71
2022/08/03 05:29:41;;;;;;;7.45;6.72;;;;;;;21.36;67.24;101392.88;6001897;29;20563;-71
2022/08/03 05:33:03;;;;;;;7.25;6.55;;;;;;;21.52;66.90;101392.63;5997308;29;20262;-72
2022/08/03 05:36:24;;;;;;;6.45;5.95;;;;;;;21.52;66.84;101392.63;5997750;29;20242;-71
2022/08/03 05:39:45;;;;;;;9.30;6.43;;;;;;;21.49;66.99;101396.59;5992638;29;20255;-71
2022/08/03 05:43:05;;;;;;;10.85;7.47;;;;;;;21.53;66.42;101390.72;5997562;29;20993;-67
2022/08/03 05:46:28;;;;;;;10.20;7.28;;;;;;;21.45;66.47;101387.06;5996291;29;20235;-69
2022/08/03 05:49:49;;;;;;;8.45;6.25;;;;;;;21.59;66.23;101390.78;6003923;29;20325;-72
2022/08/03 05:53:09;;;;;;;7.40;6.80;;;;;;;21.73;65.62;101391.78;5998479;29;20688;-70
2022/08/03 05:56:31;;;;;;;8.48;5.88;;;;;;;21.85;65.78;101392.97;6002720;29;20333;-70
2022/08/03 05:59:52;;;;;;;6.82;5.85;;;;;;;21.98;65.29;101401.34;5999080;29;20613;-71
2022/08/03 06:03:14;;;;;;;5.63;5.13;;;;;;;22.33;64.41;101392.13;5994463;29;20322;-69
2022/08/03 06:06:35;;;;;;;6.78;5.70;;;;;;;22.39;63.83;101390.47;6015054;29;20231;-69
2022/08/03 06:09:56;;;;;;;7.40;6.22;;;;;;;22.30;64.31;101392.50;6008353;29;20238;-70
2022/08/03 06:13:17;;;;;;;6.50;5.93;;;;;;;22.47;64.39;101391.16;6011217;29;20246;-69
2022/08/03 06:16:38;;;;;;;7.82;6.28;;;;;;;22.35;64.17;101392.78;6004613;29;20262;-71
2022/08/03 06:20:00;;;;;;;6.13;5.38;;;;;;;22.43;63.81;101391.75;5998779;29;20234;-70
2022/08/03 06:23:22;;;;;;;10.63;7.10;;;;;;;22.49;63.58;101386.31;5997492;29;20596;-69
2022/08/03 06:26:43;;;;;;;5.65;5.15;;;;;;;22.56;63.56;101387.22;5994489;29;20230;-70
2022/08/03 06:30:05;;;;;;;6.43;5.78;;;;;;;22.57;63.84;101390.81;5996913;29;20276;-70
2022/08/03 06:33:26;;;;;;;7.03;5.53;;;;;;;22.73;62.76;101387.78;6007478;29;20340;-73
2022/08/03 06:36:49;;;;;;;9.60;5.50;;;;;;;22.70;62.67;101396.41;5998398;29;20225;-71
2022/08/03 06:40:12;;;;;;;7.63;5.70;;;;;;;22.73;62.77;101394.13;6006072;29;20227;-71
2022/08/03 06:43:34;;;;;;;6.20;5.57;;;;;;;22.98;63.05;101397.22;6006156;29;20234;-69
2022/08/03 06:46:55;;;;;;;7.38;5.90;;;;;;;23.22;61.65;101390.34;5996074;29;20327;-71
2022/08/03 06:50:19;;;;;;;6.05;5.53;;;;;;;23.20;61.73;101392.47;6010744;29;20239;-71
2022/08/03 06:53:42;;;;;;;6.50;5.07;;;;;;;23.44;61.15;101401.03;6004457;29;20751;-71
2022/08/03 06:57:03;;;;;;;8.77;5.47;;;;;;;23.46;60.95;101398.94;5999079;29;20243;-71
2022/08/03 07:00:25;;;;;;;6.47;5.00;;;;;;;23.72;60.90;101393.47;6005737;29;20238;-69
2022/08/03 07:03:46;;;;;;;6.53;4.95;;;;;;;23.88;60.43;101389.47;6005909;29;21140;-69
2022/08/03 07:07:07;;;;;;;4.60;4.18;;;;;;;23.95;60.08;101392.25;6013700;29;20277;-69
2022/08/03 07:10:29;;;;;;;6.57;4.35;;;;;;;24.04;59.33;101402.88;6007079;29;20250;-74
2022/08/03 07:13:50;;;;;;;8.50;4.82;;;;;;;24.27;59.13;101400.53;6015663;29;20265;-73
2022/08/03 07:17:10;;;;;;;4.45;3.90;;;;;;;24.49;58.58;101409.44;6002434;29;20258;-71
2022/08/03 07:20:32;;;;;;;4.43;4.03;;;;;;;24.65;58.41;101410.88;6012333;29;20230;-70
2022/08/03 07:23:53;;;;;;;7.32;4.43;;;;;;;24.67;58.19;101411.50;6009458;29;20810;-70
2022/08/03 07:27:17;;;;;;;5.47;4.32;;;;;;;24.75;58.15;101403.91;6010875;29;20768;-70
2022/08/03 07:30:38;;;;;;;5.25;4.63;;;;;;;25.01;58.20;101406.56;6015779;29;20984;-69
2022/08/03 07:33:59;;;;;;;8.48;4.35;;;;;;;24.99;57.62;101408.69;6011112;29;20276;-67
2022/08/03 07:37:20;;;;;;;3.50;3.20;;;;;;;25.18;57.04;101406.91;6011805;29;20226;-69
2022/08/03 07:40:41;;;;;;;4.78;4.38;;;;;;;25.22;56.34;101409.03;6014293;29;20258;-69
2022/08/03 07:44:04;;;;;;;4.57;3.08;;;;;;;25.43;54.89;101407.09;6010273;29;20244;-69
2022/08/03 07:47:28;;;;;;;3.25;3.05;;;;;;;25.76;54.40;101410.50;6003356;29;20234;-70
2022/08/03 07:50:49;;;;;;;3.30;3.00;;;;;;;25.99;53.75;101411.59;6010854;29;20498;-71
2022/08/03 07:54:10;;;;;;;7.00;3.85;;;;;;;26.11;53.03;101403.47;6004347;29;20734;-71
2022/08/03 07:57:31;;;;;;;6.03;2.22;;;;;;;25.78;51.04;101402.81;6011456;29;20239;-71
2022/08/03 08:00:53;;;;;;;4.40;2.85;;;;;;;25.93;52.24;101408.91;6008927;29;20250;-69
2022/08/03 08:04:14;;;;;;;3.38;2.80;;;;;;;26.17;51.69;101402.56;6003313;29;20238;-72
2022/08/03 08:07:36;;;;;;;3.30;2.90;;;;;;;26.24;50.65;101408.03;5992967;29;20246;-68
2022/08/03 08:10:57;;;;;;;7.15;2.55;;;;;;;26.38;51.24;101402.16;5996435;29;20242;-72
2022/08/03 08:14:18;;;;;;;3.75;2.65;;;;;;;26.58;50.54;101400.03;6011592;29;20235;-70
2022/08/03 08:17:48;;;;;;;4.28;2.40;;;;;;;26.76;49.63;101402.03;6007768;29;21069;-69
2022/08/03 08:21:09;;;;;;;4.90;2.03;;;;;;;26.55;48.73;101397.75;6004030;29;20728;-68
2022/08/03 08:24:30;;;;;;;4.82;2.90;;;;;;;26.46;49.33;101395.47;6010103;29;20234;-69
2022/08/03 08:27:51;;;;;;;3.97;2.30;;;;;;;26.72;49.02;101401.63;6008389;29;20621;-69
2022/08/03 08:31:12;;;;;;;4.10;2.35;;;;;;;26.51;49.49;101402.03;6006481;29;20262;-66
2022/08/03 08:34:34;;;;;;;5.70;2.30;;;;;;;26.70;49.85;101389.09;6014040;29;20785;-69
2022/08/03 08:37:56;;;;;;;3.08;2.28;;;;;;;26.99;49.31;101387.50;6004309;29;20235;-68
2022/08/03 08:41:17;;;;;;;2.65;2.20;;;;;;;26.97;49.87;101390.50;6003636;29;20234;-68
2022/08/03 08:44:38;;;;;;;2.72;1.90;;;;;;;27.12;48.85;101406.72;5996745;29;20238;-72
2022/08/03 08:48:02;;;;;;;4.22;2.38;;;;;;;26.96;49.38;101402.66;6010100;29;20243;-79
2022/08/03 08:51:29;;;;;;;3.53;1.70;;;;;;;26.69;49.85;101392.91;6006544;29;20243;-80
2022/08/03 08:54:52;;;;;;;3.35;2.42;;;;;;;26.80;50.18;101409.66;6009814;29;20275;-80
2022/08/03 08:58:18;;;;;;;4.20;2.45;;;;;;;26.93;49.70;101420.56;6007600;29;20762;-79
2022/08/03 09:01:39;;;;;;;4.05;2.42;;;;;;;26.86;50.17;101410.66;6013038;29;20242;-69
2022/08/03 09:05:01;;;;;;;4.82;2.53;;;;;;;26.98;49.32;101417.09;6012698;29;20230;-69
2022/08/03 09:08:24;;;;;;;4.78;2.72;;;;;;;26.82;50.21;101409.41;6003231;29;20237;-70
2022/08/03 09:11:45;;;;;;;2.22;2.03;;;;;;;27.01;50.16;101405.59;5998281;29;20235;-70
2022/08/03 09:15:20;;;;;;;3.38;2.03;;;;;;;27.21;50.10;101419.16;5999871;29;20223;-67
2022/08/03 09:18:42;;;;;;;10.77;2.88;;;;;;;27.09;50.38;101402.50;5995251;29;20247;-68
2022/08/03 09:22:09;;;;;;;4.40;2.50;;;;;;;27.21;50.19;101406.16;6006096;29;20481;-69
2022/08/03 09:25:33;;;;;;;5.72;2.80;;;;;;;27.35;49.87;101406.91;6006268;29;20242;-70
2022/08/03 09:28:56;;;;;;;3.45;1.95;;;;;;;27.45;49.83;101408.00;6005951;29;20273;-69
2022/08/03 09:32:20;;;;;;;2.92;1.88;;;;;;;27.23;49.93;101406.78;5998261;29;20325;-67
2022/08/03 09:35:43;;;;;;;4.97;2.30;;;;;;;27.36;49.60;101409.41;6012488;29;20260;-71
2022/08/03 09:39:05;;;;;;;4.13;2.90;;;;;;;27.48;48.99;101406.69;6008147;29;20254;-69
2022/08/03 09:42:29;;;;;;;2.78;2.25;;;;;;;27.34;50.02;101397.72;5997628;29;20329;-69
2022/08/03 09:45:51;;;;;;;2.72;2.47;;;;;;;27.74;48.92;101400.78;5997528;29;20266;-67
2022/08/03 09:49:13;;;;;;;5.07;2.42;;;;;;;27.79;48.87;101412.00;6014047;29;20266;-68
2022/08/03 09:52:36;;;;;;;3.47;1.85;;;;;;;28.04;48.79;101390.53;6020922;29;20265;-70
2022/08/03 09:55:59;;;;;;;3.00;2.10;;;;;;;28.08;48.79;101380.63;6015384;29;20752;-68
2022/08/03 09:59:26;;;;;;;2.88;2.30;;;;;;;28.24;48.38;101393.81;6000063;29;20238;-68
2022/08/03 10:02:49;;;;;;;4.40;2.40;;;;;;;27.77;48.80;101391.13;6004993;29;20242;-69
2022/08/03 10:06:18;;;;;;;7.97;2.20;;;;;;;27.91;48.02;101396.28;6012453;29;20649;-71
2022/08/03 10:09:54;;;;;;;3.13;1.83;;;;;;;27.94;48.38;101387.47;6013657;29;20233;-83
2022/08/03 10:13:18;;;;;;;4.28;2.00;;;;;;;28.04;47.92;101382.19;6005352;29;20963;-78
2022/08/03 10:16:40;;;;;;;2.57;1.93;;;;;;;28.13;48.19;101391.03;6014788;29;21866;-81
2022/08/03 10:20:02;;;;;;;4.82;1.90;;;;;;;28.39;47.60;101385.03;5994270;29;20235;-79
2022/08/03 10:23:24;;;;;;;3.38;1.85;;;;;;;28.20;47.48;101384.31;6005139;29;20230;-78
2022/08/03 10:26:46;;;;;;;4.65;2.30;;;;;;;28.62;47.27;101371.16;5992386;29;20238;-68
2022/08/03 10:30:08;;;;;;;3.72;2.15;;;;;;;29.11;46.95;101375.31;6000427;29;20242;-70
2022/08/03 10:33:37;;;;;;;3.00;1.65;;;;;;;28.78;46.46;101383.47;5998362;29;20254;-70
2022/08/03 10:36:59;;;;;;;3.40;1.85;;;;;;;28.84;46.59;101374.16;6008795;29;20234;-67
2022/08/03 10:40:22;;;;;;;3.17;2.17;;;;;;;28.97;46.67;101369.19;6008859;29;20617;-69
2022/08/03 10:43:48;;;;;;;5.30;2.00;;;;;;;28.59;47.24;101374.44;6013919;29;20234;-67
2022/08/03 10:47:10;;;;;;;7.03;1.73;;;;;;;28.72;46.58;101371.41;5997126;29;21831;-71
2022/08/03 10:50:33;;;;;;;4.25;2.08;;;;;;;28.84;46.49;101374.16;6006461;29;20254;-71
2022/08/03 10:53:53;;;;;;;4.25;1.85;;;;;;;28.59;46.74;101370.81;6011843;29;20283;-69
2022/08/03 10:57:48;;;;;;;3.83;1.85;;;;;;;28.59;46.37;101370.81;6002812;29;20235;-69
2022/08/03 11:01:11;;;;;;;2.47;1.88;;;;;;;28.71;46.63;101374.41;6005345;29;20640;-68
2022/08/03 11:04:32;;;;;;;3.75;2.38;;;;;;;28.68;46.51;101373.00;6002326;29;20242;-68
2022/08/03 11:08:29;;;;;;;4.32;2.03;;;;;;;28.82;46.18;101360.53;5991554;29;20239;-68
2022/08/03 11:11:50;;;;;;;6.65;2.63;;;;;;;28.86;45.56;101364.50;5994503;29;20230;-69
2022/08/03 11:15:12;;;;;;;4.53;2.20;;;;;;;28.67;46.76;101367.66;5997056;29;20231;-69
2022/08/03 11:18:33;;;;;;;2.60;2.20;;;;;;;29.08;45.53;101364.72;6002824;29;20234;-72
2022/08/03 11:21:58;;;;;;;4.35;1.90;;;;;;;28.98;45.25;101364.47;5992784;29;20700;-71
2022/08/03 11:25:20;;;;;;;2.47;1.95;;;;;;;28.96;45.22;101377.75;6001967;29;20231;-72
2022/08/03 11:28:43;;;;;;;4.82;1.90;;;;;;;29.01;44.93;101361.22;6004294;29;22154;-70
2022/08/03 11:32:04;;;;;;;3.63;1.77;;;;;;;29.60;44.08;101366.31;5994577;29;20338;-70
2022/08/03 11:35:27;;;;;;;4.10;2.03;;;;;;;30.21;43.46;101357.13;6015420;29;20230;-70
2022/08/03 11:39:12;;;;;;;4.10;2.38;;;;;;;30.76;41.97;101362.75;6015645;29;20250;-70
2022/08/03 11:42:45;;;;;;;4.05;2.22;;;;;;;30.26;43.20;101360.00;6022159;29;20230;-70
2022/08/03 11:46:11;;;;;;;4.85;2.33;;;;;;;30.64;42.34;101362.03;6019035;29;20235;-71
2022/08/03 11:49:32;;;;;;;3.13;2.30;;;;;;;29.72;44.03;101361.56;6020470;29;20329;-69
2022/08/03 11:52:54;;;;;;;3.63;1.52;;;;;;;30.17;43.12;101350.41;6018624;29;20239;-70
2022/08/03 11:56:15;;;;;;;3.50;2.00;;;;;;;30.42;42.42;101353.63;6022581;29;20282;-69
2022/08/03 11:59:37;;;;;;;7.72;2.50;;;;;;;30.40;42.41;101360.53;6023552;29;20234;-69
2022/08/03 12:03:01;;;;;;;3.53;1.63;;;;;;;30.17;42.54;101347.63;6014573;29;20234;-70
2022/08/03 12:06:22;;;;;;;3.25;2.10;;;;;;;30.87;41.33;101358.19;6018771;29;20882;-69
2022/08/03 12:09:43;;;;;;;4.65;2.15;;;;;;;30.72;41.16;101359.63;6002359;29;20620;-70
2022/08/03 12:13:07;;;;;;;2.70;1.58;;;;;;;30.76;40.53;101337.69;6018783;29;20235;-69
2022/08/03 12:16:29;;;;;;;2.70;1.88;;;;;;;31.14;40.27;101347.94;6016214;29;20242;-70
2022/08/03 12:19:50;;;;;;;2.63;1.85;;;;;;;31.30;40.23;101347.88;6018387;29;20609;-71
2022/08/03 12:23:12;;;;;;;3.15;2.25;;;;;;;31.28;39.26;101335.28;5989059;29;20262;-71
2022/08/03 12:26:44;;;;;;;3.35;2.28;;;;;;;31.12;40.30;101341.81;6001923;29;20242;-71
2022/08/03 12:30:05;;;;;;;3.58;2.10;;;;;;;31.42;39.67;101340.22;6008315;29;20238;-71
2022/08/03 12:33:28;;;;;;;3.60;1.60;;;;;;;32.05;39.17;101336.69;6007297;29;20238;-71
2022/08/03 12:36:51;;;;;;;2.05;1.85;;;;;;;32.97;37.61;101331.44;6018325;29;20242;-70
2022/08/03 12:40:14;;;;;;;2.72;1.60;;;;;;;32.81;37.16;101335.28;6015674;29;20266;-70
2022/08/03 12:43:35;;;;;;;2.15;1.42;;;;;;;34.51;34.00;101336.72;6010430;29;20246;-74
2022/08/03 12:46:58;;;;;;;2.35;2.10;;;;;;;35.88;31.87;101329.34;6013947;29;21508;-71
2022/08/03 12:50:26;;;;;;;3.15;2.20;;;;;;;36.57;30.58;101329.00;6015726;29;20262;-71
2022/08/03 12:53:52;;;;;;;2.55;1.92;;;;;;;36.09;31.27;101321.63;6019995;29;20273;-72
2022/08/03 12:57:13;;;;;;;7.25;2.05;;;;;;;36.70;30.83;101322.69;6015408;29;20259;-71
2022/08/03 13:00:34;;;;;;;3.30;2.00;;;;;;;36.47;30.78;101333.91;6005481;29;20242;-69
2022/08/03 13:03:55;;;;;;;4.22;1.90;;;;;;;38.96;27.92;101328.69;6012992;29;20242;-71
2022/08/03 13:07:18;;;;;;;7.72;2.10;;;;;;;38.87;27.48;101322.94;6018054;29;20239;-69
2022/08/03 13:10:39;;;;;;;6.13;2.13;;;;;;;36.29;30.87;101335.47;6013372;29;20242;-69
2022/08/03 13:14:01;;;;;;;3.67;2.63;;;;;;;36.28;30.42;101330.97;6015919;29;20243;-70
2022/08/03 13:17:24;;;;;;;5.03;2.20;;;;;;;38.62;28.35;101333.84;6010882;29;20238;-70
2022/08/03 13:20:45;;;;;;;3.13;2.08;;;;;;;39.67;27.00;101336.44;6006326;29;20740;-71
2022/08/03 13:24:07;;;;;;;2.83;1.58;;;;;;;38.88;27.54;101326.59;6017126;29;20234;-70
2022/08/03 13:27:30;;;;;;;5.70;2.45;;;;;;;39.82;26.53;101319.97;6012718;29;20238;-70
2022/08/03 13:30:53;;;;;;;4.03;2.30;;;;;;;37.37;29.65;101321.59;6012042;29;21340;-70
2022/08/03 13:34:14;;;;;;;5.65;2.53;;;;;;;38.45;28.26;101319.56;6014669;29;20227;-71
2022/08/03 13:37:35;;;;;;;3.88;2.05;;;;;;;40.46;25.92;101321.41;6011408;29;20230;-72
2022/08/03 13:40:58;;;;;;;3.72;2.28;;;;;;;39.71;26.39;101318.53;6004570;29;20246;-71
2022/08/03 13:44:19;;;;;;;3.78;1.60;;;;;;;37.26;29.29;101331.28;6014360;29;20243;-71
2022/08/03 13:47:40;;;;;;;5.38;2.17;;;;;;;39.15;27.79;101318.13;6011023;29;20235;-72
2022/08/03 13:51:01;;;;;;;4.13;1.95;;;;;;;36.71;29.94;101315.09;6016976;29;20242;-70
2022/08/03 13:54:23;;;;;;;5.53;2.30;;;;;;;36.99;30.24;101310.56;6016105;29;20238;-70
2022/08/03 13:57:46;;;;;;;4.13;1.83;;;;;;;38.47;28.76;101303.97;6001330;29;20321;-68
2022/08/03 14:01:07;;;;;;;4.20;1.73;;;;;;;38.42;27.67;101304.09;6010711;29;20329;-68
2022/08/03 14:04:28;;;;;;;2.50;1.70;;;;;;;38.34;28.32;101293.53;6013657;29;20239;-67
2022/08/03 14:07:49;;;;;;;4.45;1.95;;;;;;;36.49;31.54;101300.72;6013069;29;20647;-69
2022/08/03 14:11:10;;;;;;;4.80;1.70;;;;;;;35.51;31.67;101292.59;6015655;29;20242;-69
2022/08/03 14:14:32;;;;;;;5.18;1.85;;;;;;;35.39;33.35;101294.88;6009729;29;20333;-69
2022/08/03 14:17:53;;;;;;;3.72;2.08;;;;;;;34.71;33.68;101293.81;6008566;29;20255;-69
2022/08/03 14:21:14;;;;;;;5.15;2.33;;;;;;;34.73;33.92;101296.31;6006631;29;20672;-69
2022/08/03 14:24:35;;;;;;;2.72;2.13;;;;;;;33.95;34.66;101298.66;6005261;29;20223;-68
2022/08/03 14:27:56;;;;;;;3.22;1.90;;;;;;;32.90;36.44;101293.66;6005402;29;20231;-68
2022/08/03 14:31:18;;;;;;;4.45;2.25;;;;;;;33.86;35.87;101297.53;5994255;29;20239;-70
2022/08/03 14:34:39;;;;;;;3.13;1.80;;;;;;;34.70;35.04;101283.72;6006484;29;20235;-67
2022/08/03 14:37:59;;;;;;;5.05;2.03;;;;;;;35.39;33.69;101289.28;6012738;29;20230;-67
2022/08/03 14:41:20;;;;;;;3.10;1.80;;;;;;;33.65;35.22;101288.28;6009735;29;20245;-68
2022/08/03 14:44:41;;;;;;;3.92;2.15;;;;;;;33.45;35.34;101291.06;6008084;29;20242;-68
2022/08/03 14:48:04;;;;;;;6.82;2.20;;;;;;;33.40;36.47;101281.81;6001785;29;20234;-68
2022/08/03 14:51:25;;;;;;;4.20;2.70;;;;;;;32.60;36.95;101287.94;5989818;29;21726;-72
2022/08/03 14:54:46;;;;;;;2.30;1.80;;;;;;;32.69;37.20;101284.34;5994797;29;20582;-69
2022/08/03 14:58:07;;;;;;;3.08;2.00;;;;;;;32.94;37.06;101286.44;5999352;29;20258;-70
2022/08/03 15:01:28;;;;;;;5.85;2.22;;;;;;;33.21;36.39;101275.06;5990579;29;20234;-72
2022/08/03 15:04:50;;;;;;;2.90;1.92;;;;;;;32.80;36.89;101277.69;6000508;29;20258;-71
2022/08/03 15:08:11;;;;;;;3.38;2.03;;;;;;;32.49;37.38;101272.22;6014030;29;20233;-72
2022/08/03 15:11:32;;;;;;;3.97;2.10;;;;;;;32.93;37.31;101271.59;6010486;29;20234;-72
2022/08/03 15:14:53;;;;;;;3.63;2.47;;;;;;;33.91;36.33;101272.34;6007555;29;20235;-72
2022/08/03 15:18:14;;;;;;;3.42;2.17;;;;;;;34.58;35.71;101270.03;6012820;29;20250;-73
2022/08/03 15:21:37;;;;;;;7.68;2.45;;;;;;;34.30;35.43;101272.59;6022762;29;20321;-73
2022/08/03 15:24:57;;;;;;;5.97;2.28;;;;;;;33.60;35.88;101262.28;6018504;29;20238;-72
2022/08/03 15:28:19;;;;;;;5.30;2.38;;;;;;;34.09;35.67;101263.41;6021275;29;20230;-73
2022/08/03 15:31:40;;;;;;;3.33;2.30;;;;;;;34.18;34.82;101264.50;6017614;29;20239;-73
2022/08/03 15:35:01;;;;;;;5.45;2.20;;;;;;;33.69;35.81;101257.81;6024510;29;20231;-72
2022/08/03 15:38:24;;;;;;;4.85;2.30;;;;;;;33.74;35.33;101269.00;6025280;29;20505;-71
2022/08/03 15:41:45;;;;;;;4.45;2.15;;;;;;;33.74;35.11;101253.06;6021910;29;20233;-72
2022/08/03 15:45:07;;;;;;;5.05;2.08;;;;;;;32.80;36.73;101263.72;6023814;29;20230;-73
2022/08/03 15:48:28;;;;;;;2.45;2.10;;;;;;;31.94;37.75;101258.75;6019338;29;20246;-73